createdAt,value
2022-12-03T00:16:35.074Z,260
2022-12-03T00:36:35.088Z,263
2022-12-03T00:56:35.131Z,258
2022-12-03T01:16:35.193Z,259
2022-12-03T01:36:35.146Z,256
2022-12-03T01:56:35.149Z,256
2022-12-03T02:16:35.204Z,263
2022-12-03T02:36:35.188Z,258
2022-12-03T02:56:35.208Z,257
2022-12-03T03:16:35.243Z,261
2022-12-03T03:36:35.228Z,258
2022-12-03T03:56:35.236Z,260
2022-12-03T04:16:35.332Z,255
2022-12-03T04:36:35.311Z,257
2022-12-03T04:56:35.150Z,256
2022-12-03T05:16:35.356Z,257
2022-12-03T05:36:35.337Z,257
2022-12-03T05:56:35.149Z,256
2022-12-03T06:16:35.408Z,255
2022-12-03T06:36:34.897Z,254
2022-12-03T06:56:39.194Z,255
2022-12-03T07:16:35.535Z,256
2022-12-03T07:36:35.453Z,250
2022-12-03T07:56:35.265Z,253
2022-12-03T08:16:35.508Z,255
2022-12-03T08:36:35.511Z,252
2022-12-03T08:56:35.027Z,256
2022-12-03T09:16:35.679Z,253
2022-12-03T09:36:35.541Z,252
2022-12-03T09:56:35.600Z,253
2022-12-03T10:16:35.638Z,253
2022-12-03T10:56:35.610Z,253
2022-12-03T11:16:35.630Z,253
2022-12-03T11:36:54.355Z,250
2022-12-03T11:56:35.647Z,250
2022-12-03T12:16:35.225Z,252
2022-12-03T12:36:35.498Z,250
2022-12-03T12:56:35.702Z,251
2022-12-03T13:16:35.829Z,252
2022-12-03T13:36:35.542Z,252
2022-12-03T13:56:35.766Z,252
2022-12-03T14:36:35.815Z,250
2022-12-03T14:56:35.837Z,250
2022-12-03T15:16:35.953Z,251
2022-12-03T15:36:35.352Z,251
2022-12-03T15:56:35.840Z,254
2022-12-03T16:16:35.903Z,252
2022-12-03T16:36:35.903Z,257
2022-12-03T16:56:35.920Z,255
2022-12-03T17:36:35.956Z,250
2022-12-03T17:56:35.978Z,256
2022-12-03T18:16:35.848Z,251
2022-12-03T18:36:36.004Z,251
2022-12-03T18:56:36.039Z,252
2022-12-03T19:16:36.138Z,251
2022-12-03T19:36:36.064Z,254
2022-12-03T19:56:36.053Z,251
2022-12-03T20:16:36.233Z,250
2022-12-03T20:36:36.096Z,258
2022-12-03T20:56:36.108Z,252
2022-12-03T21:16:59.631Z,254
2022-12-03T21:36:35.658Z,252
2022-12-03T21:56:36.188Z,252
2022-12-03T22:16:36.310Z,251
2022-12-03T22:36:36.222Z,254
2022-12-03T22:56:36.244Z,252
2022-12-03T23:16:36.272Z,252
2022-12-03T23:36:36.276Z,251
2022-12-03T23:56:35.804Z,249
